Time;durP1;ratioP1;P1;durP2;ratioP2;P2;SDS_P1;SDS_P2;PMS_P1;PMS_P2;Temp;Humidity;BMP_temperature;BMP_pressure;BME280_temperature;BME280_humidity;BME280_pressure;Samples;Min_cycle;Max_cycle;Signal;HPM_P1;HPM_P2
2021/09/25 00:00:21;;;;;;;;;;;;;;;20.98;100.00;98854.66;5100657;27;19924;-81
2021/09/25 00:02:48;;;;;;;;;;;;;;;20.94;100.00;98851.22;5107992;27;19962;-82
2021/09/25 00:05:15;;;;;;;;;;;;;;;20.21;100.00;98861.31;5119967;27;19923;-82
2021/09/25 00:07:43;;;;;;;;;;;;;;;20.70;100.00;98855.56;5137998;27;20390;-82
2021/09/25 00:10:11;;;;;;;;;;;;;;;21.08;100.00;98858.88;5119678;27;19928;-81
2021/09/25 00:12:38;;;;;;;;;;;;;;;20.40;100.00;98851.28;5137594;27;19924;-82
2021/09/25 00:15:05;;;;;;;;;;;;;;;20.76;100.00;98862.09;5102762;27;19946;-81
2021/09/25 00:17:32;;;;;;;;;;;;;;;20.36;100.00;98862.84;5119237;27;20389;-81
2021/09/25 00:20:01;;;;;;;;;;;;;;;20.69;100.00;98866.13;5137675;27;19931;-81
2021/09/25 00:22:29;;;;;;;;;;;;;;;20.93;100.00;98863.84;5119378;27;19924;-81
2021/09/25 00:24:56;;;;;;;;;;;;;;;20.66;100.00;98869.97;5119612;27;20027;-81
2021/09/25 00:27:24;;;;;;;;;;;;;;;21.05;100.00;98861.97;5119576;27;20332;-81
2021/09/25 00:29:52;;;;;;;;;;;;;;;20.83;100.00;98862.44;5119369;27;19953;-81
2021/09/25 00:32:19;;;;;;;;;;;;;;;20.89;100.00;98865.34;5137220;27;19923;-81
2021/09/25 00:34:46;;;;;;;;;;;;;;;20.58;100.00;98870.88;5131298;27;20015;-81
2021/09/25 00:37:13;;;;;;;;;;;;;;;21.18;100.00;98868.81;5111051;27;19930;-82
2021/09/25 00:39:40;;;;;;;;;;;;;;;20.54;100.00;98864.66;5137247;27;20263;-81
2021/09/25 00:42:07;;;;;;;;;;;;;;;20.37;100.00;98860.78;5137457;27;20362;-81
2021/09/25 00:44:34;;;;;;;;;;;;;;;20.43;100.00;98864.50;5101743;27;20379;-81
2021/09/25 00:47:02;;;;;;;;;;;;;;;20.78;100.00;98868.06;5136889;27;19927;-81
2021/09/25 00:49:29;;;;;;;;;;;;;;;21.12;100.00;98867.19;5081792;28;19924;-81
2021/09/25 00:51:56;;;;;;;;;;;;;;;20.85;100.00;98868.41;5098797;27;19923;-81
2021/09/25 00:54:23;;;;;;;;;;;;;;;20.69;100.00;98862.53;5127427;27;20437;-81
2021/09/25 00:56:50;;;;;;;;;;;;;;;20.65;100.00;98859.91;5113535;27;19966;-81
2021/09/25 00:59:19;;;;;;;;;;;;;;;20.57;100.00;98857.97;5118916;27;19927;-81
2021/09/25 01:01:46;;;;;;;;;;;;;;;20.51;100.00;98865.63;5118415;27;19923;-81
2021/09/25 01:04:14;;;;;;;;;;;;;;;19.98;100.00;98859.41;5118502;27;20430;-81
2021/09/25 01:06:41;;;;;;;;;;;;;;;20.51;100.00;98862.78;5136912;27;20007;-81
2021/09/25 01:09:08;;;;;;;;;;;;;;;20.56;100.00;98851.50;5101790;27;19923;-82
2021/09/25 01:11:35;;;;;;;;;;;;;;;20.51;100.00;98854.25;5080989;28;19924;-82
2021/09/25 01:14:03;;;;;;;;;;;;;;;20.42;100.00;98852.34;5101358;27;19935;-82
2021/09/25 01:16:30;;;;;;;;;;;;;;;20.73;100.00;98854.56;5118323;27;19923;-82
2021/09/25 01:18:57;;;;;;;;;;;;;;;20.70;100.00;98849.88;5070318;27;19924;-82
2021/09/25 01:21:24;;;;;;;;;;;;;;;20.90;100.00;98847.03;5118458;27;19923;-82
2021/09/25 01:23:51;;;;;;;;;;;;;;;20.55;100.00;98846.34;5136644;27;19924;-81
2021/09/25 01:26:20;;;;;;;;;;;;;;;20.93;100.00;98840.38;5136532;27;20375;-82
2021/09/25 01:28:47;;;;;;;;;;;;;;;20.70;100.00;98855.56;5118096;27;20010;-82
2021/09/25 01:31:14;;;;;;;;;;;;;;;20.88;100.00;98843.91;5101035;27;20006;-82
2021/09/25 01:33:43;;;;;;;;;;;;;;;20.96;100.00;98854.34;5101165;27;19931;-82
2021/09/25 01:36:11;;;;;;;;;;;;;;;20.98;100.00;98863.16;5136240;27;19931;-82
2021/09/25 01:38:38;;;;;;;;;;;;;;;20.90;100.00;98853.47;5118261;27;19927;-82
2021/09/25 01:41:06;;;;;;;;;;;;;;;20.65;100.00;98853.41;5116189;27;19924;-82
2021/09/25 01:43:34;;;;;;;;;;;;;;;20.72;100.00;98853.78;5106417;27;19930;-81
2021/09/25 01:46:01;;;;;;;;;;;;;;;20.30;100.00;98849.84;5100779;27;19924;-81
2021/09/25 01:48:28;;;;;;;;;;;;;;;20.32;100.00;98850.13;5117932;27;19923;-81
2021/09/25 01:50:55;;;;;;;;;;;;;;;20.73;100.00;98855.34;5117903;27;19930;-81
2021/09/25 01:53:23;;;;;;;;;;;;;;;21.01;100.00;98852.84;5117974;27;19931;-82
2021/09/25 01:55:50;;;;;;;;;;;;;;;20.30;100.00;98850.63;5135818;27;19963;-82
2021/09/25 01:58:17;;;;;;;;;;;;;;;20.28;100.00;98846.75;5135831;27;19973;-82
2021/09/25 02:00:45;;;;;;;;;;;;;;;20.88;100.00;98843.91;5117062;27;19931;-82
2021/09/25 02:03:13;;;;;;;;;;;;;;;21.04;100.00;98844.13;5136297;27;19934;-82
2021/09/25 02:05:40;;;;;;;;;;;;;;;20.59;100.00;98846.91;5100456;27;19923;-81
2021/09/25 02:08:07;;;;;;;;;;;;;;;21.14;100.00;98841.91;5135137;27;19923;-82
2021/09/25 02:10:34;;;;;;;;;;;;;;;20.68;100.00;98829.72;5117300;27;19929;-81
2021/09/25 02:13:01;;;;;;;;;;;;;;;20.80;100.00;98837.09;5135429;27;19931;-81
2021/09/25 02:15:30;;;;;;;;;;;;;;;21.20;100.00;98829.31;5099919;27;19955;-82
2021/09/25 02:17:57;;;;;;;;;;;;;;;21.21;100.00;98832.94;5117121;27;20017;-82
2021/09/25 02:20:24;;;;;;;;;;;;;;;20.99;100.00;98841.25;5117289;27;19962;-81
2021/09/25 02:22:51;;;;;;;;;;;;;;;21.40;100.00;98828.50;5135252;27;19924;-82
2021/09/25 02:25:18;;;;;;;;;;;;;;;21.14;100.00;98825.63;5135881;27;19924;-82
2021/09/25 02:27:49;;;;;;;;;;;;;;;21.10;100.00;98827.94;5116875;27;19969;-81
2021/09/25 02:30:16;;;;;;;;;;;;;;;20.74;100.00;98830.56;5135657;27;20382;-81
2021/09/25 02:32:44;;;;;;;;;;;;;;;20.97;100.00;98835.28;5117064;27;19927;-81
2021/09/25 02:35:12;;;;;;;;;;;;;;;21.21;100.00;98828.06;5116892;27;20515;-82
2021/09/25 02:37:39;;;;;;;;;;;;;;;21.21;100.00;98825.22;5135227;27;19923;-82
2021/09/25 02:40:07;;;;;;;;;;;;;;;21.09;100.00;98829.22;5117051;27;19991;-82
2021/09/25 02:42:35;;;;;;;;;;;;;;;21.29;100.00;98826.34;5116854;28;19923;-82
2021/09/25 02:45:03;;;;;;;;;;;;;;;21.36;100.00;98822.25;5086238;27;19924;-82
2021/09/25 02:47:30;;;;;;;;;;;;;;;21.34;100.00;98822.75;5116863;27;19931;-82
2021/09/25 02:49:57;;;;;;;;;;;;;;;21.39;100.00;98821.25;5100046;28;20244;-82
2021/09/25 02:52:26;;;;;;;;;;;;;;;21.30;100.00;98825.03;5116904;27;19957;-81
2021/09/25 02:54:53;;;;;;;;;;;;;;;21.09;100.00;98831.28;5116991;28;19927;-82
2021/09/25 02:57:20;;;;;;;;;;;;;;;21.35;100.00;98826.38;5134529;27;19931;-82
2021/09/25 02:59:47;;;;;;;;;;;;;;;21.16;100.00;98825.13;5099455;28;19932;-82
2021/09/25 03:02:14;;;;;;;;;;;;;;;21.25;100.00;98827.81;5134850;28;20021;-82
2021/09/25 03:04:41;;;;;;;;;;;;;;;21.22;100.00;98832.44;5100021;28;19924;-81
2021/09/25 03:07:08;;;;;;;;;;;;;;;21.25;100.00;98834.28;5134831;28;19924;-82
2021/09/25 03:09:35;;;;;;;;;;;;;;;21.23;100.00;98825.47;5116860;28;19947;-82
2021/09/25 03:12:03;;;;;;;;;;;;;;;20.72;100.00;98842.41;5134725;28;20270;-81
2021/09/25 03:14:29;;;;;;;;;;;;;;;20.67;100.00;98840.31;5135089;28;19924;-81
2021/09/25 03:16:56;;;;;;;;;;;;;;;20.73;100.00;98831.84;5095862;28;20387;-81
2021/09/25 03:19:24;;;;;;;;;;;;;;;20.70;100.00;98833.66;5117243;27;19924;-81
2021/09/25 03:21:51;;;;;;;;;;;;;;;20.84;100.00;98826.31;5103752;27;19976;-81
2021/09/25 03:24:17;;;;;;;;;;;;;;;20.77;100.00;98827.53;5138385;27;19931;-82
2021/09/25 03:26:44;;;;;;;;;;;;;;;20.96;100.00;98828.78;5119924;27;19930;-81
2021/09/25 03:29:11;;;;;;;;;;;;;;;21.16;100.00;98825.13;5138499;27;19959;-82
2021/09/25 03:31:40;;;;;;;;;;;;;;;21.05;100.00;98819.34;5120614;27;19992;-82
2021/09/25 03:34:07;;;;;;;;;;;;;;;21.04;100.00;98823.47;5120672;27;19923;-82
2021/09/25 03:36:43;;;;;;;;;;;;;;;20.89;100.00;98822.75;5120978;27;19935;-81
2021/09/25 03:39:10;;;;;;;;;;;;;;;20.95;100.00;98827.25;5138333;27;19924;-82
2021/09/25 03:41:37;;;;;;;;;;;;;;;20.67;100.00;98822.50;5123731;27;20401;-81
2021/09/25 03:44:04;;;;;;;;;;;;;;;20.81;100.00;98827.31;5119706;27;20348;-81
2021/09/25 03:46:31;;;;;;;;;;;;;;;21.03;100.00;98822.69;5099652;28;20040;-80
2021/09/25 03:48:59;;;;;;;;;;;;;;;20.75;100.00;98829.31;5119616;27;19962;-80
2021/09/25 03:51:26;;;;;;;;;;;;;;;20.79;100.00;98830.66;5137969;27;19958;-79
2021/09/25 03:53:53;;;;;;;;;;;;;;;20.83;100.00;98830.41;5119515;27;19931;-79
2021/09/25 03:56:20;;;;;;;;;;;;;;;21.15;100.00;98830.06;5137715;27;20332;-80
2021/09/25 03:58:47;;;;;;;;;;;;;;;21.27;100.00;98831.72;5137898;27;20022;-81
2021/09/25 04:01:14;;;;;;;;;;;;;;;21.16;100.00;98836.50;5111768;27;19923;-81
2021/09/25 04:03:44;;;;;;;;;;;;;;;21.09;100.00;98836.94;5137584;27;20374;-81
2021/09/25 04:06:11;;;;;;;;;;;;;;;20.92;100.00;98833.09;5118740;27;19930;-81
2021/09/25 04:08:38;;;;;;;;;;;;;;;20.75;100.00;98840.66;5119177;27;19923;-81
2021/09/25 04:11:05;;;;;;;;;;;;;;;21.08;100.00;98843.91;5137705;27;19923;-81
2021/09/25 04:13:33;;;;;;;;;;;;;;;20.80;100.00;98837.09;5138092;27;20413;-81
2021/09/25 04:16:00;;;;;;;;;;;;;;;20.88;100.00;98841.06;5119266;27;19923;-81
2021/09/25 04:18:33;;;;;;;;;;;;;;;20.98;100.00;98843.28;5087067;27;19928;-82
2021/09/25 04:21:06;;;;;;;;;;;;;;;20.92;100.00;98844.47;5137803;27;19924;-81
2021/09/25 04:23:33;;;;;;;;;;;;;;;20.88;100.00;98841.06;5119318;27;20351;-81
2021/09/25 04:26:00;;;;;;;;;;;;;;;20.89;100.00;98834.09;5137619;27;19924;-81
2021/09/25 04:28:28;;;;;;;;;;;;;;;20.52;100.00;98838.81;5119529;27;19924;-82
2021/09/25 04:30:55;;;;;;;;;;;;;;;20.42;100.00;98840.22;5098560;27;19923;-82
2021/09/25 04:33:22;;;;;;;;;;;;;;;20.48;100.00;98843.91;5119252;27;19928;-82
2021/09/25 04:35:49;;;;;;;;;;;;;;;20.77;100.00;98838.09;5106250;28;19924;-82
2021/09/25 04:38:16;;;;;;;;;;;;;;;20.94;100.00;98830.56;5118002;27;19984;-82
2021/09/25 04:40:43;;;;;;;;;;;;;;;20.41;100.00;98832.97;5098315;28;20055;-82
2021/09/25 04:43:10;;;;;;;;;;;;;;;20.16;100.00;98828.00;5134388;27;20374;-82
2021/09/25 04:45:38;;;;;;;;;;;;;;;20.36;100.00;98825.16;5119173;27;19923;-82
2021/09/25 04:48:05;;;;;;;;;;;;;;;19.75;100.00;98826.31;5136807;27;19930;-81
2021/09/25 04:50:32;;;;;;;;;;;;;;;20.16;100.00;98828.75;5101253;27;20374;-81
2021/09/25 04:53:10;;;;;;;;;;;;;;;20.11;100.00;98826.63;5118101;27;19923;-82
2021/09/25 04:55:37;;;;;;;;;;;;;;;20.13;100.00;98829.75;5081648;28;19924;-82
2021/09/25 04:58:05;;;;;;;;;;;;;;;20.33;100.00;98831.81;5112731;27;20390;-81
2021/09/25 05:00:33;;;;;;;;;;;;;;;20.48;100.00;98830.50;5104418;27;19924;-81
2021/09/25 05:03:00;;;;;;;;;;;;;;;20.49;100.00;98831.28;5136781;27;19972;-81
2021/09/25 05:05:27;;;;;;;;;;;;;;;20.67;100.00;98831.00;5136495;27;19924;-81
2021/09/25 05:07:54;;;;;;;;;;;;;;;20.80;100.00;98822.91;5097848;28;19947;-81
2021/09/25 05:10:21;;;;;;;;;;;;;;;20.83;100.00;98819.84;5098160;27;19995;-81
2021/09/25 05:12:49;;;;;;;;;;;;;;;20.53;100.00;98821.28;5136956;27;19931;-81
2021/09/25 05:15:19;;;;;;;;;;;;;;;20.77;100.00;98815.38;5122209;27;19928;-82
2021/09/25 05:17:46;;;;;;;;;;;;;;;20.83;100.00;98827.59;5136536;27;19924;-82
2021/09/25 05:20:13;;;;;;;;;;;;;;;21.03;100.00;98816.22;5136901;27;20296;-82
2021/09/25 05:22:40;;;;;;;;;;;;;;;20.95;100.00;98810.22;5117793;27;19923;-81
2021/09/25 05:25:08;;;;;;;;;;;;;;;20.79;100.00;98818.50;5118482;27;19972;-81
2021/09/25 05:27:36;;;;;;;;;;;;;;;20.44;100.00;98817.81;5118322;27;20391;-81
2021/09/25 05:30:06;;;;;;;;;;;;;;;20.87;100.00;98814.72;5136480;27;19924;-81
2021/09/25 05:32:33;;;;;;;;;;;;;;;20.76;100.00;98823.13;5136198;27;19932;-81
2021/09/25 05:35:01;;;;;;;;;;;;;;;20.79;100.00;98818.50;5117944;27;19930;-81
2021/09/25 05:37:28;;;;;;;;;;;;;;;20.91;100.00;98820.97;5098487;27;20011;-81
2021/09/25 05:39:55;;;;;;;;;;;;;;;20.90;100.00;98822.25;5118263;27;19947;-82
2021/09/25 05:42:22;;;;;;;;;;;;;;;20.96;100.00;98814.59;5136318;27;19977;-82
2021/09/25 05:44:51;;;;;;;;;;;;;;;20.69;100.00;98817.88;5101376;27;20010;-82
2021/09/25 05:47:19;;;;;;;;;;;;;;;20.61;100.00;98825.28;5135770;27;20008;-82
2021/09/25 05:49:46;;;;;;;;;;;;;;;20.87;100.00;98831.75;5098090;28;19924;-81
2021/09/25 05:52:15;;;;;;;;;;;;;;;20.93;100.00;98832.59;5108362;27;19946;-82
2021/09/25 05:54:43;;;;;;;;;;;;;;;20.93;100.00;98840.38;5117578;27;19923;-81
2021/09/25 05:57:11;;;;;;;;;;;;;;;20.95;100.00;98834.97;5097408;28;20026;-82
2021/09/25 05:59:38;;;;;;;;;;;;;;;20.62;100.00;98840.22;5113339;27;20386;-82
2021/09/25 06:02:05;;;;;;;;;;;;;;;20.44;100.00;98843.34;5098917;28;19976;-82
2021/09/25 06:04:33;;;;;;;;;;;;;;;20.34;100.00;98841.94;5129244;27;19930;-82
2021/09/25 06:07:00;;;;;;;;;;;;;;;20.35;100.00;98847.09;5121502;27;20018;-82
2021/09/25 06:09:27;;;;;;;;;;;;;;;20.59;100.00;98849.72;5097122;28;19977;-82
2021/09/25 06:11:55;;;;;;;;;;;;;;;20.78;100.00;98839.66;5115620;27;19924;-82
2021/09/25 06:14:22;;;;;;;;;;;;;;;20.92;100.00;98839.56;5117357;27;19930;-82
2021/09/25 06:16:49;;;;;;;;;;;;;;;20.95;100.00;98832.94;5146422;27;19929;-82
2021/09/25 06:19:18;;;;;;;;;;;;;;;20.81;100.00;98830.16;5097342;28;19927;-82
2021/09/25 06:21:45;;;;;;;;;;;;;;;20.77;100.00;98838.09;5125165;27;19931;-82
2021/09/25 06:24:12;;;;;;;;;;;;;;;20.98;100.00;98840.44;5114291;27;20405;-82
2021/09/25 06:26:39;;;;;;;;;;;;;;;21.13;100.00;98843.19;5094671;27;19927;-82
2021/09/25 06:29:06;;;;;;;;;;;;;;;21.19;100.00;98846.84;5114652;27;20339;-83
2021/09/25 06:31:34;;;;;;;;;;;;;;;21.25;100.00;98839.19;5102047;28;20044;-82
2021/09/25 06:34:01;;;;;;;;;;;;;;;21.18;100.00;98836.78;5100086;27;20022;-82
2021/09/25 06:36:29;;;;;;;;;;;;;;;21.28;100.00;98827.59;5119999;27;19923;-82
2021/09/25 06:38:56;;;;;;;;;;;;;;;21.25;100.00;98827.81;5108662;27;19923;-83
2021/09/25 06:41:23;;;;;;;;;;;;;;;21.06;100.00;98835.09;5124792;27;19928;-83
2021/09/25 06:43:50;;;;;;;;;;;;;;;21.09;100.00;98840.59;5119087;27;19931;-83
2021/09/25 06:46:17;;;;;;;;;;;;;;;21.32;100.00;98844.44;5098561;27;19994;-82
2021/09/25 06:48:47;;;;;;;;;;;;;;;21.34;100.00;98841.88;5120071;27;20000;-81
2021/09/25 06:51:16;;;;;;;;;;;;;;;21.45;100.00;98836.28;5120110;27;19928;-81
2021/09/25 06:53:43;;;;;;;;;;;;;;;21.50;100.00;98840.47;5096736;28;20073;-81
2021/09/25 06:56:12;;;;;;;;;;;;;;;21.38;100.00;98840.38;5100516;27;19947;-81
2021/09/25 06:58:41;;;;;;;;;;;;;;;21.48;100.00;98840.97;5102439;27;19930;-81
2021/09/25 07:01:08;;;;;;;;;;;;;;;21.55;100.00;98839.72;5101572;28;19951;-81
2021/09/25 07:03:35;;;;;;;;;;;;;;;21.61;100.00;98832.81;5119286;27;19924;-81
2021/09/25 07:06:02;;;;;;;;;;;;;;;21.68;100.00;98826.66;5119345;27;19924;-81
2021/09/25 07:08:29;;;;;;;;;;;;;;;21.73;100.00;98825.16;5125582;27;19927;-81
2021/09/25 07:10:56;;;;;;;;;;;;;;;21.52;100.00;98840.75;5109857;28;19967;-81
2021/09/25 07:13:23;;;;;;;;;;;;;;;21.37;100.00;98846.56;5128072;27;19924;-81
2021/09/25 07:15:50;;;;;;;;;;;;;;;21.50;100.00;98844.09;5111273;28;20285;-81
2021/09/25 07:18:19;;;;;;;;;;;;;;;21.38;100.00;98843.22;5120143;27;19938;-80
2021/09/25 07:20:46;;;;;;;;;;;;;;;21.54;100.00;98844.63;5127949;27;19949;-80
2021/09/25 07:23:13;;;;;;;;;;;;;;;21.53;100.00;98843.09;5103703;28;19931;-82
2021/09/25 07:25:40;;;;;;;;;;;;;;;21.37;100.00;98830.25;5102063;28;19924;-81
2021/09/25 07:28:07;;;;;;;;;;;;;;;21.46;100.00;98837.84;5116616;27;19930;-81
2021/09/25 07:30:37;;;;;;;;;;;;;;;21.44;100.00;98843.25;5116959;27;19927;-81
2021/09/25 07:33:06;;;;;;;;;;;;;;;21.46;100.00;98843.53;5103466;27;19934;-81
2021/09/25 07:35:34;;;;;;;;;;;;;;;21.15;100.00;98857.69;5117932;28;19973;-82
2021/09/25 07:38:02;;;;;;;;;;;;;;;21.08;100.00;98855.28;5080594;28;19992;-83
2021/09/25 07:40:30;;;;;;;;;;;;;;;21.54;100.00;98861.69;5102366;27;19927;-81
2021/09/25 07:42:57;;;;;;;;;;;;;;;21.95;100.00;98865.16;5136879;27;20018;-85
2021/09/25 07:45:25;;;;;;;;;;;;;;;22.20;100.00;98856.59;5048915;28;20012;-84
2021/09/25 07:47:52;;;;;;;;;;;;;;;22.06;100.00;98856.72;5087949;27;19931;-82
2021/09/25 07:50:19;;;;;;;;;;;;;;;22.32;100.00;98849.69;5087007;27;20432;-87
2021/09/25 07:52:46;;;;;;;;;;;;;;;21.98;100.00;98856.41;5086471;27;19968;-86
2021/09/25 07:55:13;;;;;;;;;;;;;;;21.94;100.00;98853.03;5098951;28;19931;-87
2021/09/25 07:57:42;;;;;;;;;;;;;;;21.99;100.00;98863.66;5125984;27;19946;-85
2021/09/25 08:00:10;;;;;;;;;;;;;;;21.69;100.00;98865.19;5096981;27;19957;-86
2021/09/25 08:02:37;;;;;;;;;;;;;;;21.72;100.00;98861.34;5125175;27;19924;-85
2021/09/25 08:05:04;;;;;;;;;;;;;;;22.14;100.00;98863.53;5115987;27;19946;-82
2021/09/25 08:07:32;;;;;;;;;;;;;;;22.37;100.00;98860.31;5087676;28;19923;-85
2021/09/25 08:09:59;;;;;;;;;;;;;;;22.27;100.00;98858.16;5114153;27;19923;-86
2021/09/25 08:12:26;;;;;;;;;;;;;;;22.28;100.00;98856.91;5075889;28;19931;-85
2021/09/25 08:14:53;;;;;;;;;;;;;;;21.73;100.00;98862.13;5091539;28;19924;-86
2021/09/25 08:17:20;;;;;;;;;;;;;;;21.81;100.00;98860.41;5129585;27;19923;-87
2021/09/25 08:19:47;;;;;;;;;;;;;;;21.81;100.00;98863.25;5081863;27;19950;-88
2021/09/25 08:22:15;;;;;;;;;;;;;;;22.50;100.00;98863.53;5097313;28;19938;-87
2021/09/25 08:24:43;;;;;;;;;;;;;;;22.72;100.00;98857.94;5100920;28;19998;-86
2021/09/25 08:27:10;;;;;;;;;;;;;;;23.08;100.00;98851.34;5097868;28;19938;-86
2021/09/25 08:29:38;;;;;;;;;;;;;;;23.15;100.00;98858.63;5095130;27;19947;-87
2021/09/25 08:32:06;;;;;;;;;;;;;;;22.02;100.00;98862.66;5100540;28;19935;-87
2021/09/25 08:34:33;;;;;;;;;;;;;;;22.32;100.00;98863.91;5075395;27;20008;-86
2021/09/25 08:37:00;;;;;;;;;;;;;;;23.01;100.00;98862.44;5103767;27;19931;-88
2021/09/25 08:39:27;;;;;;;;;;;;;;;22.54;100.00;98863.28;5080025;28;20378;-88
2021/09/25 08:41:57;;;;;;;;;;;;;;;23.13;100.00;98864.84;5098879;27;19923;-88
2021/09/25 08:44:24;;;;;;;;;;;;;;;23.28;100.00;98858.94;5102894;27;19923;-85
2021/09/25 08:46:52;;;;;;;;;;;;;;;22.93;100.00;98861.41;5106969;27;19959;-86
2021/09/25 08:49:19;;;;;;;;;;;;;;;22.98;100.00;98852.88;5099444;28;19924;-85
2021/09/25 08:51:46;;;;;;;;;;;;;;;22.82;100.00;98853.59;5105680;27;19979;-86
2021/09/25 08:54:14;;;;;;;;;;;;;;;22.82;100.00;98861.34;5100622;28;20053;-85
2021/09/25 08:56:43;;;;;;;;;;;;;;;23.38;100.00;98868.81;5083560;28;19923;-86
2021/09/25 08:59:14;;;;;;;;;;;;;;;23.54;100.00;98853.81;5064562;28;19931;-86
2021/09/25 09:01:42;;;;;;;;;;;;;;;23.72;100.00;98855.41;5110886;27;19958;-86
2021/09/25 09:04:10;;;;;;;;;;;;;;;23.03;100.00;98857.81;5127186;27;19930;-87
2021/09/25 09:06:38;;;;;;;;;;;;;;;23.17;100.00;98866.66;5098618;27;20298;-86
2021/09/25 09:09:06;;;;;;;;;;;;;;;23.39;100.00;98863.88;5107128;27;20324;-86
2021/09/25 09:11:35;;;;;;;;;;;;;;;23.33;100.00;98861.03;5106348;27;20270;-86
2021/09/25 09:14:04;;;;;;;;;;;;;;;23.54;100.00;98858.75;5130301;27;19924;-86
2021/09/25 09:16:31;;;;;;;;;;;;;;;23.38;100.00;98863.13;5126821;27;19923;-86
2021/09/25 09:18:59;;;;;;;;;;;;;;;23.31;100.00;98869.31;5100911;27;20028;-86
2021/09/25 09:21:48;;;;;;;;;;;;;;;23.57;100.00;98869.13;5120157;27;20076;-87
2021/09/25 09:24:45;;;;;;;;;;;;;;;23.35;100.00;98857.66;5100722;28;19931;-87
2021/09/25 09:27:31;;;;;;;;;;;;;;;23.40;100.00;98871.91;5118274;27;19930;-87
2021/09/25 09:30:17;;;;;;;;;;;;;;;22.91;100.00;98861.91;5112165;27;20230;-86
2021/09/25 09:33:02;;;;;;;;;;;;;;;22.79;100.00;98859.53;5113992;27;20405;-86
2021/09/25 09:35:48;;;;;;;;;;;;;;;22.70;100.00;98860.50;5106187;27;19930;-86
2021/09/25 09:38:36;;;;;;;;;;;;;;;22.90;100.00;98865.28;5119861;27;19975;-87
2021/09/25 09:41:25;;;;;;;;;;;;;;;22.92;100.00;98866.31;5115900;27;19931;-87
2021/09/25 09:44:12;;;;;;;;;;;;;;;22.96;100.00;98866.09;5105689;27;20012;-87
2021/09/25 09:46:59;;;;;;;;;;;;;;;23.21;100.00;98870.03;5135600;27;20578;-87
2021/09/25 09:49:46;;;;;;;;;;;;;;;22.64;100.00;98879.63;5104116;27;19931;-87
2021/09/25 09:52:32;;;;;;;;;;;;;;;23.19;100.00;98878.34;5088171;27;19993;-88
2021/09/25 09:54:59;;;;;;;;;;;;;;;23.33;100.00;98871.66;5094821;27;20018;-86
2021/09/25 09:57:26;;;;;;;;;;;;;;;23.62;100.00;98877.69;5093503;27;19976;-87
2021/09/25 09:59:53;;;;;;;;;;;;;;;23.81;100.00;98867.31;5110812;27;19924;-85
2021/09/25 10:02:21;;;;;;;;;;;;;;;23.84;100.00;98862.66;5117142;27;19923;-86
2021/09/25 10:04:48;;;;;;;;;;;;;;;23.90;100.00;98858.50;5077974;27;20069;-87
2021/09/25 10:07:15;;;;;;;;;;;;;;;23.98;100.00;98851.00;5113825;28;19924;-87
2021/09/25 10:09:42;;;;;;;;;;;;;;;23.77;100.00;98849.69;5111735;27;19930;-87
2021/09/25 10:12:10;;;;;;;;;;;;;;;23.64;100.00;98857.97;5081305;28;19972;-87
2021/09/25 10:14:39;;;;;;;;;;;;;;;23.69;100.00;98853.56;5097704;28;19924;-86
2021/09/25 10:17:08;;;;;;;;;;;;;;;23.58;100.00;98860.06;5098784;27;20378;-87
2021/09/25 10:19:36;;;;;;;;;;;;;;;23.41;100.00;98855.59;5104760;27;19923;-84
2021/09/25 10:22:03;;;;;;;;;;;;;;;23.29;100.00;98857.66;5096015;27;20394;-85
2021/09/25 10:24:32;;;;;;;;;;;;;;;24.00;100.00;98854.13;5123081;27;20466;-83
2021/09/25 10:27:02;;;;;;;;;;;;;;;23.93;100.00;98863.16;5114339;27;20394;-83
2021/09/25 10:29:29;;;;;;;;;;;;;;;23.96;100.00;98861.41;5099326;28;19930;-85
2021/09/25 10:32:15;;;;;;;;;;;;;;;24.00;100.00;98853.34;5063486;28;20307;-82
2021/09/25 10:35:12;;;;;;;;;;;;;;;24.53;100.00;98850.13;5079652;28;20410;-85
2021/09/25 10:37:41;;;;;;;;;;;;;;;24.63;100.00;98843.63;5108723;27;19931;-86
2021/09/25 10:40:26;;;;;;;;;;;;;;;24.77;100.00;98838.91;5116189;27;19935;-88
2021/09/25 10:42:59;;;;;;;;;;;;;;;24.94;100.00;98830.28;5099006;27;19923;-88
2021/09/25 10:45:32;;;;;;;;;;;;;;;24.31;100.00;98839.53;5100967;28;19924;-86
2021/09/25 10:48:24;;;;;;;;;;;;;;;23.20;100.00;98845.69;5062785;28;19948;-86
2021/09/25 10:51:06;;;;;;;;;;;;;;;22.73;100.00;98853.78;5056452;28;19969;-84
2021/09/25 10:53:37;;;;;;;;;;;;;;;22.83;100.00;98860.84;5025197;28;19932;-84
2021/09/25 10:56:06;;;;;;;;;;;;;;;22.58;100.00;98863.84;5052023;28;20491;-86
2021/09/25 10:58:37;;;;;;;;;;;;;;;22.56;100.00;98850.09;5028937;28;20384;-85
2021/09/25 11:01:15;;;;;;;;;;;;;;;22.82;100.00;98845.06;5027540;28;19926;-86
2021/09/25 11:06:13;;;;;;;;;;;;;;;22.81;100.00;98849.16;5033253;28;19932;-87
2021/09/25 11:09:00;;;;;;;;;;;;;;;22.41;100.00;98846.63;4998543;28;19925;-86
2021/09/25 11:11:47;;;;;;;;;;;;;;;22.67;100.00;98847.28;5015971;28;20426;-86
2021/09/25 11:14:14;;;;;;;;;;;;;;;22.83;100.00;98851.50;5044987;28;19932;-85
2021/09/25 11:16:45;;;;;;;;;;;;;;;22.97;100.00;98847.69;5033431;28;19981;-86
2021/09/25 11:19:22;;;;;;;;;;;;;;;23.21;100.00;98841.53;5018090;28;19929;-87
2021/09/25 11:22:01;;;;;;;;;;;;;;;23.41;100.00;98838.50;5025570;28;20343;-86
2021/09/25 11:24:32;;;;;;;;;;;;;;;23.50;100.00;98836.19;5011312;28;19933;-86
2021/09/25 11:27:00;;;;;;;;;;;;;;;23.38;100.00;98833.81;5027603;28;19925;-89
2021/09/25 11:29:27;;;;;;;;;;;;;;;23.27;100.00;98828.09;5014864;28;20380;-86
2021/09/25 11:32:03;;;;;;;;;;;;;;;22.96;100.00;98826.19;5014787;28;20396;-86
2021/09/25 11:34:31;;;;;;;;;;;;;;;23.06;100.00;98831.16;5005348;28;19925;-85
2021/09/25 11:37:00;;;;;;;;;;;;;;;23.23;100.00;98827.56;5013392;28;19933;-86
2021/09/25 11:39:44;;;;;;;;;;;;;;;23.60;100.00;98831.03;5021908;28;19965;-86
2021/09/25 11:42:16;;;;;;;;;;;;;;;23.02;100.00;98824.91;5048812;28;19925;-86
2021/09/25 11:44:48;;;;;;;;;;;;;;;22.91;100.00;98819.19;5017970;28;19926;-86
2021/09/25 11:47:23;;;;;;;;;;;;;;;23.05;100.00;98812.47;5048124;28;19925;-85
2021/09/25 11:49:50;;;;;;;;;;;;;;;23.19;100.00;98815.63;5033270;28;19929;-85
2021/09/25 11:52:17;;;;;;;;;;;;;;;23.26;100.00;98815.16;5039303;28;20368;-85
2021/09/25 11:54:44;;;;;;;;;;;;;;;23.09;100.00;98815.88;5036670;28;19925;-85
2021/09/25 11:57:13;;;;;;;;;;;;;;;23.35;100.00;98812.06;5033173;28;19984;-85
2021/09/25 11:59:40;;;;;;;;;;;;;;;23.37;100.00;98804.53;5033378;28;20401;-85
2021/09/25 12:02:07;;;;;;;;;;;;;;;23.49;100.00;98808.19;5033771;28;19925;-85
2021/09/25 12:04:38;;;;;;;;;;;;;;;23.62;100.00;98792.13;5024115;28;20340;-85
2021/09/25 12:07:05;;;;;;;;;;;;;;;23.85;100.00;98793.66;5020624;28;19936;-85
2021/09/25 12:09:42;;;;;;;;;;;;;;;24.12;100.00;98784.31;5029346;28;19933;-85
2021/09/25 12:12:09;;;;;;;;;;;;;;;24.31;100.00;98779.59;5031051;28;19925;-85
2021/09/25 12:14:40;;;;;;;;;;;;;;;24.34;100.00;98777.78;5017319;28;19925;-85
2021/09/25 12:17:08;;;;;;;;;;;;;;;24.24;100.00;98774.44;5017144;28;19929;-85
2021/09/25 12:19:35;;;;;;;;;;;;;;;24.32;100.00;98774.66;4981470;28;20332;-85
2021/09/25 12:22:02;;;;;;;;;;;;;;;24.61;100.00;98771.19;5011154;28;19925;-85
2021/09/25 12:24:31;;;;;;;;;;;;;;;24.81;100.00;98775.78;5023621;28;19931;-85
2021/09/25 12:26:57;;;;;;;;;;;;;;;24.61;100.00;98771.19;5003686;28;19933;-85
2021/09/25 12:29:25;;;;;;;;;;;;;;;24.45;100.00;98772.00;5019279;28;19995;-86
2021/09/25 12:31:59;;;;;;;;;;;;;;;24.27;100.00;98784.00;5018293;28;19932;-85
2021/09/25 12:34:26;;;;;;;;;;;;;;;24.01;100.00;98767.22;5000975;28;19975;-85
2021/09/25 12:36:54;;;;;;;;;;;;;;;24.01;100.00;98777.84;5001725;28;19925;-85
2021/09/25 12:39:23;;;;;;;;;;;;;;;24.46;100.00;98765.03;5011920;28;20364;-86
2021/09/25 12:41:53;;;;;;;;;;;;;;;24.87;100.00;98754.44;5017920;28;20380;-85
2021/09/25 12:44:21;;;;;;;;;;;;;;;25.05;100.00;98753.84;5001770;28;19945;-86
2021/09/25 12:46:50;;;;;;;;;;;;;;;24.98;100.00;98742.97;4997739;28;19929;-85